createdAt,value
2019-03-11T00:00:37.190Z,32.00
2019-03-11T00:01:37.958Z,32.00
2019-03-11T00:02:37.171Z,32.00
2019-03-11T00:03:37.152Z,32.00
2019-03-11T00:04:37.146Z,32.00
2019-03-11T00:05:37.959Z,32.00
2019-03-11T00:06:37.113Z,32.00
2019-03-11T00:07:37.128Z,32.00
2019-03-11T00:08:37.094Z,36.00
2019-03-11T00:09:37.087Z,36.00
2019-03-11T00:10:49.522Z,36.00
2019-03-11T00:11:37.067Z,36.00
2019-03-11T00:12:37.057Z,36.00
2019-03-11T00:13:37.089Z,36.00
2019-03-11T00:14:37.028Z,36.00
2019-03-11T00:15:37.024Z,36.00
2019-03-11T00:16:37.013Z,36.00
2019-03-11T00:17:37.001Z,36.00
2019-03-11T00:18:36.988Z,36.00
2019-03-11T00:19:36.991Z,36.00
2019-03-11T00:20:36.972Z,36.00
2019-03-11T00:21:36.957Z,36.00
2019-03-11T00:22:36.948Z,36.00
2019-03-11T00:23:36.944Z,36.00
2019-03-11T00:24:36.927Z,36.00
2019-03-11T00:25:36.956Z,36.00
2019-03-11T00:26:36.909Z,36.00
2019-03-11T00:27:36.892Z,36.00
2019-03-11T00:28:36.889Z,36.00
2019-03-11T00:29:36.887Z,36.00
2019-03-11T00:30:36.863Z,36.00
2019-03-11T00:31:36.855Z,36.00
2019-03-11T00:32:36.837Z,36.00
2019-03-11T00:33:36.830Z,36.00
2019-03-11T00:34:36.817Z,36.00
2019-03-11T00:35:36.853Z,36.00
2019-03-11T00:36:36.795Z,36.00
2019-03-11T00:37:36.785Z,36.00
2019-03-11T00:38:36.775Z,36.00
2019-03-11T00:39:36.764Z,36.00
2019-03-11T00:40:36.750Z,36.00
2019-03-11T00:41:50.078Z,36.00
2019-03-11T00:42:36.737Z,36.00
2019-03-11T00:43:36.723Z,32.00
2019-03-11T00:44:36.724Z,32.00
2019-03-11T00:45:36.711Z,32.00
2019-03-11T00:46:36.688Z,32.00
2019-03-11T00:47:36.723Z,32.00
2019-03-11T00:48:36.681Z,32.00
2019-03-11T00:49:36.655Z,32.00
2019-03-11T00:50:36.646Z,32.00
2019-03-11T00:51:36.634Z,32.00
2019-03-11T00:52:36.750Z,32.00
2019-03-11T00:53:36.668Z,32.00
2019-03-11T00:54:36.604Z,32.00
2019-03-11T00:55:36.591Z,32.00
2019-03-11T00:56:36.581Z,32.00
2019-03-11T00:57:36.579Z,32.00
2019-03-11T00:58:36.561Z,32.00
2019-03-11T00:59:36.594Z,32.00
2019-03-11T01:00:36.553Z,32.00
2019-03-11T01:01:36.540Z,36.00
2019-03-11T01:02:36.521Z,32.00
2019-03-11T01:03:36.514Z,32.00
2019-03-11T01:04:36.497Z,36.00
2019-03-11T01:05:36.500Z,36.00
2019-03-11T01:06:36.481Z,36.00
2019-03-11T01:07:36.470Z,36.00
2019-03-11T01:08:36.455Z,36.00
2019-03-11T01:09:36.445Z,36.00
2019-03-11T01:10:36.453Z,36.00
2019-03-11T01:11:36.426Z,36.00
2019-03-11T01:12:49.491Z,36.00
2019-03-11T01:13:36.404Z,36.00
2019-03-11T01:14:36.395Z,36.00
2019-03-11T01:15:36.383Z,36.00
2019-03-11T01:16:36.398Z,36.00
2019-03-11T01:17:36.371Z,36.00
2019-03-11T01:18:36.354Z,36.00
2019-03-11T01:19:36.337Z,36.00
2019-03-11T01:20:36.342Z,36.00
2019-03-11T01:21:36.314Z,36.00
2019-03-11T01:22:36.358Z,36.00
2019-03-11T01:23:36.301Z,36.00
2019-03-11T01:24:36.302Z,36.00
2019-03-11T01:25:36.285Z,36.00
2019-03-11T01:26:36.268Z,36.00
2019-03-11T01:27:36.251Z,36.00
2019-03-11T01:28:36.277Z,36.00
2019-03-11T01:29:36.234Z,36.00
2019-03-11T01:30:36.224Z,36.00
2019-03-11T01:31:36.214Z,36.00
2019-03-11T01:32:36.203Z,36.00
2019-03-11T01:33:36.191Z,36.00
2019-03-11T01:34:37.077Z,36.00
2019-03-11T01:35:36.165Z,36.00
2019-03-11T01:36:36.160Z,36.00
2019-03-11T01:37:36.153Z,36.00
2019-03-11T01:38:36.135Z,36.00
2019-03-11T01:39:36.127Z,36.00
2019-03-11T01:40:36.131Z,36.00
2019-03-11T01:41:36.103Z,36.00
2019-03-11T01:42:36.093Z,32.00
2019-03-11T01:43:48.751Z,36.00
2019-03-11T01:44:36.083Z,32.00
2019-03-11T01:45:36.064Z,36.00
2019-03-11T01:46:36.094Z,36.00
2019-03-11T01:47:36.043Z,36.00
2019-03-11T01:48:36.025Z,36.00
2019-03-11T01:49:36.024Z,36.00
2019-03-11T01:50:36.022Z,32.00
2019-03-11T01:51:36.009Z,32.00
2019-03-11T01:52:36.036Z,32.00
2019-03-11T01:53:35.981Z,32.00
2019-03-11T01:54:35.972Z,32.00
2019-03-11T01:55:35.955Z,32.00
2019-03-11T01:56:35.950Z,32.00
2019-03-11T01:57:36.644Z,36.00
2019-03-11T01:58:35.956Z,36.00
2019-03-11T01:59:35.916Z,36.00
2019-03-11T02:00:35.907Z,36.00
2019-03-11T02:01:35.896Z,36.00
2019-03-11T02:02:35.887Z,36.00
2019-03-11T02:03:35.869Z,36.00
2019-03-11T02:04:35.896Z,36.00
2019-03-11T02:05:35.865Z,36.00
2019-03-11T02:06:35.837Z,36.00
2019-03-11T02:07:35.843Z,36.00
2019-03-11T02:08:35.818Z,36.00
2019-03-11T02:09:35.804Z,36.00
2019-03-11T02:10:35.815Z,36.00
2019-03-11T02:11:35.792Z,36.00
2019-03-11T02:12:35.779Z,36.00
2019-03-11T02:13:35.765Z,36.00
2019-03-11T02:14:48.157Z,36.00
2019-03-11T02:15:35.741Z,36.00
2019-03-11T02:16:35.770Z,36.00
2019-03-11T02:17:35.721Z,36.00
2019-03-11T02:18:35.713Z,36.00
2019-03-11T02:19:35.697Z,36.00
2019-03-11T02:20:35.706Z,32.00
2019-03-11T02:21:35.679Z,32.00
2019-03-11T02:22:35.700Z,32.00
2019-03-11T02:23:35.657Z,36.00
2019-03-11T02:24:35.646Z,32.00
2019-03-11T02:25:35.634Z,32.00
2019-03-11T02:26:35.636Z,32.00
2019-03-11T02:27:35.616Z,32.00
2019-03-11T02:28:35.647Z,32.00
2019-03-11T02:29:35.596Z,32.00
2019-03-11T02:30:35.580Z,32.00
2019-03-11T02:31:35.580Z,32.00
2019-03-11T02:32:35.562Z,32.00
2019-03-11T02:33:35.552Z,32.00
2019-03-11T02:34:35.553Z,36.00
2019-03-11T02:35:35.531Z,36.00
2019-03-11T02:36:35.521Z,36.00
2019-03-11T02:37:35.507Z,36.00
2019-03-11T02:38:35.493Z,32.00
2019-03-11T02:39:35.536Z,32.00
2019-03-11T02:40:35.481Z,32.00
2019-03-11T02:41:35.464Z,32.00
2019-03-11T02:42:35.455Z,32.00
2019-03-11T02:43:35.442Z,32.00
2019-03-11T02:44:35.434Z,32.00
2019-03-11T02:45:48.202Z,32.00
2019-03-11T02:46:35.416Z,32.00
2019-03-11T02:47:35.407Z,32.00
2019-03-11T02:48:35.391Z,32.00
2019-03-11T02:49:35.380Z,32.00
2019-03-11T02:50:35.392Z,32.00
2019-03-11T02:51:35.391Z,32.00
2019-03-11T02:52:35.358Z,32.00
2019-03-11T02:53:35.342Z,32.00
2019-03-11T02:54:35.329Z,32.00
2019-03-11T02:55:35.322Z,32.00
2019-03-11T02:56:35.308Z,32.00
2019-03-11T02:57:35.330Z,32.00
2019-03-11T02:58:35.290Z,32.00
2019-03-11T02:59:35.282Z,32.00
2019-03-11T03:00:35.264Z,32.00
2019-03-11T03:01:35.266Z,32.00
2019-03-11T03:02:35.247Z,32.00
2019-03-11T03:03:35.260Z,32.00
2019-03-11T03:04:35.232Z,32.00
2019-03-11T03:05:35.224Z,32.00
2019-03-11T03:06:35.215Z,36.00
2019-03-11T03:07:35.192Z,32.00
2019-03-11T03:08:35.181Z,32.00
2019-03-11T03:09:35.189Z,32.00
2019-03-11T03:10:35.168Z,32.00
2019-03-11T03:11:35.159Z,32.00
2019-03-11T03:12:35.144Z,36.00
2019-03-11T03:13:35.133Z,36.00
2019-03-11T03:14:35.197Z,36.00
2019-03-11T03:15:35.111Z,36.00
2019-03-11T03:16:47.545Z,32.00
2019-03-11T03:17:35.086Z,32.00
2019-03-11T03:18:35.083Z,32.00
2019-03-11T03:19:35.072Z,32.00
2019-03-11T03:20:35.094Z,32.00
2019-03-11T03:21:35.046Z,32.00
2019-03-11T03:22:35.042Z,32.00
2019-03-11T03:23:35.039Z,32.00
2019-03-11T03:24:35.013Z,32.00
2019-03-11T03:25:35.227Z,32.00
2019-03-11T03:26:34.998Z,32.00
2019-03-11T03:27:35.008Z,32.00
2019-03-11T03:28:34.979Z,32.00
2019-03-11T03:29:34.959Z,32.00
2019-03-11T03:30:34.949Z,32.00
2019-03-11T03:31:35.032Z,32.00
2019-03-11T03:32:34.932Z,32.00
2019-03-11T03:33:34.931Z,32.00
2019-03-11T03:34:34.930Z,32.00
2019-03-11T03:35:34.898Z,32.00
2019-03-11T03:36:34.895Z,32.00
2019-03-11T03:37:34.952Z,32.00
2019-03-11T03:38:34.884Z,32.00
2019-03-11T03:39:34.855Z,32.00
2019-03-11T03:40:34.856Z,32.00
2019-03-11T03:41:34.845Z,32.00
2019-03-11T03:42:34.861Z,32.00
2019-03-11T03:43:34.859Z,32.00
2019-03-11T03:44:34.804Z,36.00
2019-03-11T03:45:34.794Z,32.00
2019-03-11T03:46:34.793Z,36.00
2019-03-11T03:47:47.967Z,36.00
2019-03-11T03:48:34.831Z,36.00
2019-03-11T03:49:35.258Z,36.00
2019-03-11T03:50:34.761Z,36.00
2019-03-11T03:51:34.751Z,36.00
2019-03-11T03:52:34.732Z,36.00
2019-03-11T03:53:34.709Z,36.00
2019-03-11T03:54:34.709Z,36.00
2019-03-11T03:55:34.750Z,36.00
2019-03-11T03:56:34.689Z,36.00
2019-03-11T03:57:34.676Z,36.00
2019-03-11T03:58:34.662Z,40.00
2019-03-11T03:59:34.655Z,36.00
2019-03-11T04:00:34.647Z,40.00
2019-03-11T04:01:34.672Z,36.00
2019-03-11T04:02:34.625Z,40.00
2019-03-11T04:03:34.617Z,40.00
2019-03-11T04:04:34.598Z,44.00
2019-03-11T04:05:34.589Z,44.00
2019-03-11T04:06:34.584Z,44.00
2019-03-11T04:07:34.721Z,44.00
2019-03-11T04:08:34.621Z,48.00
2019-03-11T04:09:34.553Z,48.00
2019-03-11T04:10:34.550Z,52.00
2019-03-11T04:11:34.524Z,56.00
2019-03-11T04:12:34.530Z,60.00
2019-03-11T04:13:34.519Z,64.00
2019-03-11T04:14:34.493Z,68.00
2019-03-11T04:15:34.483Z,68.00
2019-03-11T04:16:34.482Z,72.00
2019-03-11T04:17:34.470Z,80.00
2019-03-11T04:18:47.303Z,88.00
2019-03-11T04:19:34.444Z,96.00
2019-03-11T04:20:34.439Z,100.00
2019-03-11T04:21:34.423Z,112.00
2019-03-11T04:22:34.419Z,120.00
2019-03-11T04:23:34.421Z,132.00
2019-03-11T04:24:34.435Z,144.00
2019-03-11T04:25:34.379Z,156.00
2019-03-11T04:26:34.377Z,172.00
2019-03-11T04:27:34.361Z,184.00
2019-03-11T04:28:34.349Z,204.00
2019-03-11T04:29:34.347Z,220.00
2019-03-11T04:30:34.366Z,240.00
2019-03-11T04:31:34.334Z,228.00
2019-03-11T04:32:34.319Z,248.00
2019-03-11T04:33:34.304Z,272.00
2019-03-11T04:34:36.154Z,300.00
2019-03-11T04:35:34.277Z,328.00
2019-03-11T04:36:34.287Z,352.00
2019-03-11T04:37:34.270Z,376.00
2019-03-11T04:38:34.244Z,408.00
2019-03-11T04:39:34.234Z,440.00
2019-03-11T04:40:34.230Z,472.00
2019-03-11T04:41:34.223Z,504.00
2019-03-11T04:42:34.224Z,536.00
2019-03-11T04:43:34.205Z,568.00
2019-03-11T04:44:34.184Z,608.00
2019-03-11T04:45:34.175Z,644.00
2019-03-11T04:46:34.163Z,684.00
2019-03-11T04:47:34.155Z,732.00
2019-03-11T04:48:34.160Z,772.00
2019-03-11T04:49:47.239Z,828.00
2019-03-11T04:50:34.127Z,872.00
2019-03-11T04:51:34.114Z,916.00
2019-03-11T04:52:34.134Z,960.00
2019-03-11T04:53:34.089Z,1012.00
2019-03-11T04:54:34.119Z,1056.00
2019-03-11T04:55:34.087Z,1104.00
2019-03-11T04:56:34.058Z,1152.00
2019-03-11T04:57:34.054Z,1200.00
2019-03-11T04:58:34.043Z,1244.00
2019-03-11T04:59:34.035Z,1288.00
2019-03-11T05:00:34.096Z,1340.00
2019-03-11T05:01:34.018Z,1388.00
2019-03-11T05:02:34.004Z,1436.00
2019-03-11T05:03:34.003Z,1480.00
2019-03-11T05:04:33.992Z,1524.00
2019-03-11T05:05:33.978Z,1568.00
2019-03-11T05:06:34.000Z,1620.00
2019-03-11T05:07:33.967Z,1668.00
2019-03-11T05:08:33.940Z,1720.00
2019-03-11T05:09:33.927Z,1772.00
2019-03-11T05:10:33.931Z,1828.00
2019-03-11T05:11:33.916Z,1888.00
2019-03-11T05:12:33.929Z,1944.00
2019-03-11T05:13:33.888Z,2008.00
2019-03-11T05:14:33.889Z,2076.00
2019-03-11T05:15:33.879Z,2148.00
2019-03-11T05:16:33.855Z,2220.00
2019-03-11T05:17:33.850Z,2300.00
2019-03-11T05:18:33.928Z,2400.00
2019-03-11T05:19:33.833Z,2508.00
2019-03-11T05:20:47.476Z,2648.00
2019-03-11T05:21:33.803Z,2816.00
2019-03-11T05:22:33.796Z,2860.00
2019-03-11T05:23:33.784Z,2924.00
2019-03-11T05:24:33.831Z,3088.00
2019-03-11T05:25:33.763Z,3436.00
2019-03-11T05:26:33.755Z,4064.00
2019-03-11T05:27:33.744Z,4184.00
2019-03-11T05:28:33.730Z,4060.00
2019-03-11T05:29:33.736Z,4588.00
2019-03-11T05:30:33.752Z,5452.00
2019-03-11T05:31:33.703Z,7624.00
2019-03-11T05:32:33.693Z,7752.00
2019-03-11T05:33:33.689Z,7884.00
2019-03-11T05:34:33.670Z,6612.00
2019-03-11T05:35:33.659Z,7456.00
2019-03-11T05:36:33.655Z,8684.00
2019-03-11T05:37:33.639Z,9512.00
2019-03-11T05:38:33.627Z,9756.00
2019-03-11T05:39:33.639Z,11316.00
2019-03-11T05:40:33.607Z,12992.00
2019-03-11T05:41:33.871Z,12384.00
2019-03-11T05:42:33.581Z,12032.00
2019-03-11T05:43:33.571Z,11604.00
2019-03-11T05:44:33.680Z,10492.00
2019-03-11T05:45:33.552Z,13408.00
2019-03-11T05:46:33.556Z,16128.00
2019-03-11T05:47:33.586Z,15648.00
2019-03-11T05:48:33.520Z,17088.00
2019-03-11T05:49:33.506Z,16544.00
2019-03-11T05:50:33.524Z,14240.00
2019-03-11T05:51:46.452Z,11932.00
2019-03-11T05:52:33.481Z,12212.00
2019-03-11T05:53:33.612Z,11164.00
2019-03-11T05:54:33.464Z,10596.00
2019-03-11T05:55:33.455Z,10468.00
2019-03-11T05:56:33.451Z,10276.00
2019-03-11T05:57:33.463Z,10408.00
2019-03-11T05:58:33.447Z,10992.00
2019-03-11T05:59:33.444Z,10688.00
2019-03-11T06:00:33.389Z,9820.00
2019-03-11T06:01:33.389Z,9364.00
2019-03-11T06:02:33.369Z,9060.00
2019-03-11T06:03:33.359Z,8992.00
2019-03-11T06:04:33.380Z,9044.00
2019-03-11T06:05:33.361Z,9140.00
2019-03-11T06:06:33.326Z,9232.00
2019-03-11T06:07:33.317Z,9316.00
2019-03-11T06:08:33.308Z,9396.00
2019-03-11T06:09:33.298Z,9456.00
2019-03-11T06:10:33.288Z,9536.00
2019-03-11T06:11:33.308Z,9624.00
2019-03-11T06:12:33.261Z,9740.00
2019-03-11T06:13:36.122Z,9864.00
2019-03-11T06:14:33.241Z,9972.00
2019-03-11T06:15:33.229Z,10084.00
2019-03-11T06:16:33.222Z,10192.00
2019-03-11T06:17:33.254Z,10284.00
2019-03-11T06:18:33.191Z,10396.00
2019-03-11T06:19:33.208Z,10516.00
2019-03-11T06:20:33.176Z,10480.00
2019-03-11T06:21:33.161Z,10392.00
2019-03-11T06:22:45.961Z,10384.00
2019-03-11T06:23:33.145Z,10516.00
2019-03-11T06:24:33.148Z,10728.00
2019-03-11T06:25:33.124Z,10852.00
2019-03-11T06:26:33.146Z,10856.00
2019-03-11T06:27:33.097Z,11040.00
2019-03-11T06:28:33.127Z,11088.00
2019-03-11T06:29:33.077Z,11248.00
2019-03-11T06:30:33.075Z,11408.00
2019-03-11T06:31:33.051Z,11484.00
2019-03-11T06:32:33.040Z,11652.00
2019-03-11T06:33:33.040Z,11756.00
2019-03-11T06:34:33.036Z,11804.00
2019-03-11T06:35:33.012Z,11760.00
2019-03-11T06:36:33.006Z,12076.00
2019-03-11T06:37:32.992Z,12060.00
2019-03-11T06:38:32.979Z,11836.00
2019-03-11T06:39:33.020Z,12544.00
2019-03-11T06:40:33.009Z,12696.00
2019-03-11T06:41:32.971Z,12828.00
2019-03-11T06:42:32.949Z,13036.00
2019-03-11T06:43:32.982Z,13228.00
2019-03-11T06:44:32.913Z,13392.00
2019-03-11T06:45:32.906Z,13756.00
2019-03-11T06:46:32.930Z,14456.00
2019-03-11T06:47:32.885Z,14864.00
2019-03-11T06:48:32.892Z,15076.00
2019-03-11T06:49:32.861Z,13848.00
2019-03-11T06:50:32.923Z,13268.00
2019-03-11T06:51:32.840Z,14528.00
2019-03-11T06:52:32.881Z,13536.00
2019-03-11T06:53:46.017Z,14856.00
2019-03-11T06:54:32.806Z,14760.00
2019-03-11T06:55:32.808Z,15524.00
2019-03-11T06:56:33.449Z,14992.00
2019-03-11T06:57:32.770Z,13984.00
2019-03-11T06:58:32.802Z,14980.00
2019-03-11T06:59:32.755Z,15176.00
2019-03-11T07:00:32.753Z,15052.00
2019-03-11T07:01:32.727Z,14700.00
2019-03-11T07:02:32.717Z,14448.00
2019-03-11T07:03:32.740Z,14776.00
2019-03-11T07:04:32.731Z,15372.00
2019-03-11T07:05:32.720Z,15440.00
2019-03-11T07:06:32.681Z,15852.00
2019-03-11T07:07:32.671Z,16460.00
2019-03-11T07:08:32.656Z,16440.00
2019-03-11T07:09:32.662Z,16136.00
2019-03-11T07:10:33.023Z,15952.00
2019-03-11T07:11:32.623Z,16360.00
2019-03-11T07:12:33.498Z,16108.00
2019-03-11T07:13:32.632Z,16392.00
2019-03-11T07:14:32.600Z,16280.00
2019-03-11T07:15:32.576Z,16492.00
2019-03-11T07:16:32.586Z,16648.00
2019-03-11T07:17:32.571Z,14452.00
2019-03-11T07:18:32.599Z,13116.00
2019-03-11T07:19:32.555Z,11260.00
2019-03-11T07:20:32.591Z,11384.00
2019-03-11T07:21:32.515Z,11228.00
2019-03-11T07:22:32.606Z,11468.00
2019-03-11T07:23:32.497Z,11692.00
2019-03-11T07:24:45.365Z,12064.00
2019-03-11T07:25:32.475Z,12608.00
2019-03-11T07:26:32.456Z,13324.00
2019-03-11T07:27:32.456Z,14016.00
2019-03-11T07:28:32.466Z,14848.00
2019-03-11T07:29:32.439Z,15360.00
2019-03-11T07:30:32.414Z,15852.00
2019-03-11T07:31:32.413Z,15800.00
2019-03-11T07:32:32.403Z,17568.00
2019-03-11T07:33:32.980Z,15064.00
2019-03-11T07:34:32.415Z,14340.00
2019-03-11T07:35:32.365Z,18912.00
2019-03-11T07:36:32.363Z,22464.00
2019-03-11T07:37:32.347Z,21536.00
2019-03-11T07:38:32.342Z,20704.00
2019-03-11T07:39:32.974Z,20000.00
2019-03-11T07:40:32.313Z,19616.00
2019-03-11T07:41:32.299Z,19424.00
2019-03-11T07:42:32.290Z,19104.00
2019-03-11T07:43:32.285Z,19040.00
2019-03-11T07:44:32.269Z,19232.00
2019-03-11T07:45:32.294Z,19360.00
2019-03-11T07:46:32.242Z,19360.00
2019-03-11T07:47:32.232Z,19456.00
2019-03-11T07:48:32.222Z,19552.00
2019-03-11T07:49:32.212Z,19648.00
2019-03-11T07:50:32.220Z,19776.00
2019-03-11T07:51:32.255Z,19872.00
2019-03-11T07:52:32.175Z,19904.00
2019-03-11T07:53:33.021Z,20064.00
2019-03-11T07:54:35.784Z,20160.00
2019-03-11T07:55:44.245Z,20384.00
2019-03-11T07:56:32.141Z,18044.00
2019-03-11T07:57:32.155Z,18400.00
2019-03-11T07:58:32.116Z,19296.00
2019-03-11T07:59:32.171Z,19104.00
2019-03-11T08:00:32.105Z,19840.00
2019-03-11T08:01:32.084Z,20032.00
2019-03-11T08:02:32.451Z,19872.00
2019-03-11T08:03:32.145Z,20512.00
2019-03-11T08:04:32.064Z,20864.00
2019-03-11T08:05:32.032Z,20992.00
2019-03-11T08:06:32.054Z,21216.00
2019-03-11T08:07:32.049Z,21120.00
2019-03-11T08:08:32.016Z,21216.00
2019-03-11T08:09:37.895Z,21312.00
2019-03-11T08:10:32.984Z,21440.00
2019-03-11T08:11:31.968Z,21440.00
2019-03-11T08:12:31.962Z,21472.00
2019-03-11T08:13:31.944Z,18624.00
2019-03-11T08:14:31.933Z,18204.00
2019-03-11T08:15:31.986Z,18752.00
2019-03-11T08:16:31.911Z,17512.00
2019-03-11T08:17:31.900Z,13880.00
2019-03-11T08:18:35.235Z,13480.00
2019-03-11T08:19:31.891Z,10392.00
2019-03-11T08:20:31.866Z,12364.00
2019-03-11T08:21:31.887Z,10752.00
2019-03-11T08:22:31.859Z,12804.00
2019-03-11T08:23:31.832Z,13372.00
2019-03-11T08:24:31.938Z,19104.00
2019-03-11T08:25:31.834Z,15544.00
2019-03-11T08:26:44.096Z,17244.00
2019-03-11T08:27:31.803Z,20448.00
2019-03-11T08:28:31.778Z,18624.00
2019-03-11T08:29:31.765Z,20256.00
2019-03-11T08:30:31.754Z,20480.00
2019-03-11T08:31:31.751Z,20512.00
2019-03-11T08:32:31.763Z,20576.00
2019-03-11T08:33:31.729Z,20608.00
2019-03-11T08:34:31.720Z,20672.00
2019-03-11T08:35:31.709Z,20672.00
2019-03-11T08:36:31.712Z,20704.00
2019-03-11T08:37:31.688Z,20736.00
2019-03-11T08:38:31.677Z,20768.00
2019-03-11T08:39:31.741Z,20832.00
2019-03-11T08:40:31.656Z,20864.00
2019-03-11T08:41:31.684Z,20928.00
2019-03-11T08:42:31.631Z,20896.00
2019-03-11T08:43:31.651Z,20960.00
2019-03-11T08:44:31.606Z,20992.00
2019-03-11T08:45:31.593Z,21024.00
2019-03-11T08:46:31.586Z,21216.00
2019-03-11T08:47:31.574Z,21248.00
2019-03-11T08:48:31.561Z,21280.00
2019-03-11T08:49:31.567Z,21312.00
2019-03-11T08:50:31.536Z,21312.00
2019-03-11T08:51:31.544Z,21344.00
2019-03-11T08:52:31.595Z,21280.00
2019-03-11T08:53:31.563Z,21088.00
2019-03-11T08:54:31.555Z,21344.00
2019-03-11T08:55:31.523Z,21376.00
2019-03-11T08:56:31.469Z,21440.00
2019-03-11T08:57:44.706Z,21504.00
2019-03-11T08:58:31.450Z,21472.00
2019-03-11T08:59:31.443Z,21536.00
2019-03-11T09:00:31.431Z,21760.00
2019-03-11T09:01:31.465Z,21824.00
2019-03-11T09:02:31.407Z,22208.00
2019-03-11T09:03:31.411Z,22464.00
2019-03-11T09:04:31.387Z,22848.00
2019-03-11T09:05:31.374Z,22720.00
2019-03-11T09:06:31.366Z,13704.00
2019-03-11T09:07:31.404Z,16236.00
2019-03-11T09:08:31.365Z,21408.00
2019-03-11T09:09:31.956Z,17456.00
2019-03-11T09:10:31.336Z,20672.00
2019-03-11T09:11:32.421Z,26592.00
2019-03-11T09:12:31.296Z,21696.00
2019-03-11T09:13:31.296Z,22912.00
2019-03-11T09:14:31.278Z,22016.00
2019-03-11T09:15:31.269Z,20384.00
2019-03-11T09:16:31.256Z,19936.00
2019-03-11T09:17:31.258Z,19872.00
2019-03-11T09:18:31.281Z,20288.00
2019-03-11T09:19:31.225Z,20384.00
2019-03-11T09:20:31.211Z,21824.00
2019-03-11T09:21:31.203Z,20544.00
2019-03-11T09:22:31.204Z,20288.00
2019-03-11T09:23:31.673Z,20928.00
2019-03-11T09:24:31.208Z,21696.00
2019-03-11T09:25:31.188Z,22240.00
2019-03-11T09:26:31.149Z,22240.00
2019-03-11T09:27:31.140Z,22624.00
2019-03-11T09:28:44.101Z,21888.00
2019-03-11T09:29:31.127Z,22592.00
2019-03-11T09:30:31.139Z,25920.00
2019-03-11T09:31:31.101Z,22560.00
2019-03-11T09:32:31.097Z,23424.00
2019-03-11T09:33:31.077Z,25632.00
2019-03-11T09:34:31.138Z,22912.00
2019-03-11T09:35:31.117Z,22464.00
2019-03-11T09:36:31.085Z,22080.00
2019-03-11T09:37:31.053Z,21728.00
2019-03-11T09:38:31.018Z,21536.00
2019-03-11T09:39:31.009Z,21536.00
2019-03-11T09:40:31.030Z,21536.00
2019-03-11T09:41:31.018Z,21472.00
2019-03-11T09:42:30.991Z,21312.00
2019-03-11T09:43:30.958Z,21184.00
2019-03-11T09:44:30.955Z,21088.00
2019-03-11T09:45:31.311Z,21024.00
2019-03-11T09:46:30.937Z,20544.00
2019-03-11T09:47:30.924Z,20000.00
2019-03-11T09:48:30.992Z,19712.00
2019-03-11T09:49:30.903Z,19648.00
2019-03-11T09:50:30.918Z,19552.00
2019-03-11T09:51:30.883Z,19264.00
2019-03-11T09:52:30.861Z,19104.00
2019-03-11T09:53:30.852Z,19328.00
2019-03-11T09:54:30.876Z,19584.00
2019-03-11T09:55:30.901Z,19424.00
2019-03-11T09:56:30.836Z,19360.00
2019-03-11T09:57:30.838Z,18976.00
2019-03-11T09:58:31.629Z,18816.00
2019-03-11T09:59:44.225Z,18944.00
2019-03-11T10:00:30.782Z,18720.00
2019-03-11T10:01:30.765Z,18656.00
2019-03-11T10:02:30.753Z,18528.00
2019-03-11T10:03:30.809Z,18592.00
2019-03-11T10:04:30.736Z,18784.00
2019-03-11T10:05:30.776Z,18784.00
2019-03-11T10:06:30.713Z,18496.00
2019-03-11T10:07:30.832Z,18400.00
2019-03-11T10:08:30.877Z,18432.00
2019-03-11T10:09:30.679Z,18752.00
2019-03-11T10:10:31.664Z,19744.00
2019-03-11T10:11:30.748Z,19968.00
2019-03-11T10:12:30.658Z,20896.00
2019-03-11T10:13:30.640Z,22432.00
2019-03-11T10:14:30.622Z,21984.00
2019-03-11T10:15:30.615Z,21600.00
2019-03-11T10:16:30.604Z,21408.00
2019-03-11T10:17:30.631Z,21376.00
2019-03-11T10:18:30.586Z,20576.00
2019-03-11T10:19:30.569Z,20448.00
2019-03-11T10:20:30.560Z,21632.00
2019-03-11T10:21:30.552Z,19712.00
2019-03-11T10:22:30.542Z,19136.00
2019-03-11T10:23:32.410Z,19008.00
2019-03-11T10:24:30.535Z,18720.00
2019-03-11T10:25:30.504Z,18592.00
2019-03-11T10:26:30.492Z,18752.00
2019-03-11T10:27:30.481Z,20832.00
2019-03-11T10:28:30.489Z,22592.00
2019-03-11T10:29:30.499Z,25632.00
2019-03-11T10:30:43.574Z,22144.00
2019-03-11T10:31:30.433Z,21408.00
2019-03-11T10:32:30.431Z,21056.00
2019-03-11T10:33:30.408Z,20608.00
2019-03-11T10:34:30.417Z,20288.00
2019-03-11T10:35:32.380Z,19392.00
2019-03-11T10:36:30.374Z,19168.00
2019-03-11T10:37:30.371Z,24224.00
2019-03-11T10:38:30.370Z,28448.00
2019-03-11T10:39:30.344Z,26240.00
2019-03-11T10:40:30.334Z,28256.00
2019-03-11T10:41:30.413Z,21472.00
2019-03-11T10:42:30.324Z,24256.00
2019-03-11T10:43:30.298Z,24192.00
2019-03-11T10:44:30.291Z,14768.00
2019-03-11T10:45:32.199Z,12892.00
2019-03-11T10:46:30.278Z,13216.00
2019-03-11T10:47:30.304Z,12864.00
2019-03-11T10:48:37.180Z,21184.00
2019-03-11T10:49:31.256Z,17968.00
2019-03-11T10:50:30.331Z,15724.00
2019-03-11T10:51:32.246Z,14052.00
2019-03-11T10:52:30.268Z,11940.00
2019-03-11T10:53:31.198Z,14736.00
2019-03-11T10:54:30.178Z,14696.00
2019-03-11T10:55:30.170Z,11748.00
2019-03-11T10:56:30.158Z,11536.00
2019-03-11T10:57:30.150Z,12544.00
2019-03-11T10:58:30.131Z,11652.00
2019-03-11T10:59:30.137Z,12432.00
2019-03-11T11:00:39.750Z,11648.00
2019-03-11T11:01:37.641Z,11648.00
2019-03-11T11:02:30.091Z,11936.00
2019-03-11T11:03:30.156Z,12996.00
2019-03-11T11:04:30.114Z,13348.00
2019-03-11T11:05:30.062Z,12612.00
2019-03-11T11:06:30.070Z,12296.00
2019-03-11T11:07:30.038Z,13184.00
2019-03-11T11:08:30.037Z,13420.00
2019-03-11T11:09:30.039Z,13920.00
2019-03-11T11:10:30.071Z,14832.00
2019-03-11T11:11:30.829Z,14188.00
2019-03-11T11:12:30.002Z,14868.00
2019-03-11T11:13:29.997Z,13264.00
2019-03-11T11:14:29.960Z,12716.00
2019-03-11T11:15:29.951Z,12848.00
2019-03-11T11:16:29.959Z,12800.00
2019-03-11T11:17:29.931Z,13560.00
2019-03-11T11:18:29.949Z,16060.00
2019-03-11T11:19:29.905Z,16316.00
2019-03-11T11:20:29.889Z,17580.00
2019-03-11T11:21:29.918Z,18944.00
2019-03-11T11:22:29.871Z,18944.00
2019-03-11T11:23:29.861Z,18752.00
2019-03-11T11:24:29.852Z,16356.00
2019-03-11T11:25:29.831Z,13348.00
2019-03-11T11:26:29.822Z,12960.00
2019-03-11T11:27:29.854Z,13136.00
2019-03-11T11:28:29.804Z,13348.00
2019-03-11T11:29:29.862Z,13340.00
2019-03-11T11:30:29.775Z,13244.00
2019-03-11T11:31:29.772Z,13040.00
2019-03-11T11:32:41.790Z,12716.00
2019-03-11T11:33:29.785Z,12492.00
2019-03-11T11:34:29.809Z,12320.00
2019-03-11T11:35:29.730Z,12108.00
2019-03-11T11:36:29.719Z,12036.00
2019-03-11T11:37:29.705Z,12164.00
2019-03-11T11:38:29.687Z,12668.00
2019-03-11T11:39:29.744Z,12796.00
2019-03-11T11:40:29.678Z,13068.00
2019-03-11T11:41:29.654Z,13728.00
2019-03-11T11:42:29.648Z,14688.00
2019-03-11T11:43:29.638Z,14836.00
2019-03-11T11:44:29.695Z,14332.00
2019-03-11T11:45:29.680Z,14400.00
2019-03-11T11:46:29.599Z,14900.00
2019-03-11T11:47:29.598Z,15176.00
2019-03-11T11:48:29.582Z,15040.00
2019-03-11T11:49:29.565Z,15004.00
2019-03-11T11:50:29.570Z,14804.00
2019-03-11T11:51:29.586Z,15156.00
2019-03-11T11:52:29.573Z,15296.00
2019-03-11T11:53:29.525Z,15384.00
2019-03-11T11:54:29.519Z,15608.00
2019-03-11T11:55:29.498Z,14844.00
2019-03-11T11:56:29.486Z,14716.00
2019-03-11T11:57:29.498Z,14916.00
2019-03-11T11:58:29.481Z,15172.00
2019-03-11T11:59:29.461Z,15216.00
2019-03-11T12:00:29.546Z,14760.00
2019-03-11T12:01:29.436Z,14792.00
2019-03-11T12:02:29.462Z,14784.00
2019-03-11T12:03:42.194Z,14800.00
2019-03-11T12:04:29.404Z,14984.00
2019-03-11T12:05:29.395Z,15544.00
2019-03-11T12:06:29.376Z,16004.00
2019-03-11T12:07:29.425Z,16772.00
2019-03-11T12:08:29.528Z,16888.00
2019-03-11T12:09:29.343Z,17728.00
2019-03-11T12:10:29.367Z,18304.00
2019-03-11T12:11:29.330Z,18688.00